createdAt,value
2017-07-06T00:00:09.638Z,0
2017-07-06T00:00:30.565Z,0
2017-07-06T00:00:50.838Z,0
2017-07-06T00:01:11.145Z,0
2017-07-06T00:01:31.410Z,0
2017-07-06T00:01:51.724Z,0
2017-07-06T00:02:12.976Z,0
2017-07-06T00:02:33.294Z,0
2017-07-06T00:02:55.583Z,0
2017-07-06T00:03:15.914Z,0
2017-07-06T00:03:36.211Z,0
2017-07-06T00:03:56.557Z,0
2017-07-06T00:04:16.862Z,0
2017-07-06T00:04:37.122Z,0
2017-07-06T00:04:57.456Z,0
2017-07-06T00:05:17.721Z,0
2017-07-06T00:05:37.983Z,0
2017-07-06T00:05:58.249Z,0
2017-07-06T00:06:18.511Z,0
2017-07-06T00:06:39.553Z,0
2017-07-06T00:06:59.868Z,0
2017-07-06T00:07:20.935Z,0
2017-07-06T00:07:41.217Z,0
2017-07-06T00:08:01.488Z,0
2017-07-06T00:08:21.831Z,0
2017-07-06T00:08:42.097Z,0
2017-07-06T00:09:02.391Z,0
2017-07-06T00:09:22.748Z,0
2017-07-06T00:09:44.027Z,0
2017-07-06T00:10:04.299Z,0
2017-07-06T00:10:24.559Z,0
2017-07-06T00:10:44.826Z,0
2017-07-06T00:11:05.133Z,0
2017-07-06T00:11:25.392Z,0
2017-07-06T00:11:45.742Z,0
2017-07-06T00:12:06.049Z,0
2017-07-06T00:12:26.320Z,0
2017-07-06T00:12:46.634Z,0
2017-07-06T00:13:06.893Z,0
2017-07-06T00:13:27.216Z,0
2017-07-06T00:13:47.473Z,0
2017-07-06T00:14:07.728Z,0
2017-07-06T00:14:28.033Z,0
2017-07-06T00:14:48.300Z,0
2017-07-06T00:15:09.561Z,0
2017-07-06T00:15:29.862Z,0
2017-07-06T00:15:50.165Z,0
2017-07-06T00:16:10.426Z,0
2017-07-06T00:16:31.494Z,0
2017-07-06T00:16:52.572Z,0
2017-07-06T00:17:12.865Z,0
2017-07-06T00:17:33.125Z,0
2017-07-06T00:17:53.442Z,0
2017-07-06T00:18:13.741Z,0
2017-07-06T00:18:34.051Z,0
2017-07-06T00:18:54.314Z,0
2017-07-06T00:19:14.661Z,0
2017-07-06T00:19:34.923Z,0
2017-07-06T00:19:56.050Z,0
2017-07-06T00:20:16.322Z,0
2017-07-06T00:20:36.625Z,0
2017-07-06T00:20:57.566Z,0
2017-07-06T00:21:17.984Z,0
2017-07-06T00:21:38.255Z,0
2017-07-06T00:21:58.550Z,0
2017-07-06T00:22:18.813Z,0
2017-07-06T00:22:39.150Z,0
2017-07-06T00:22:59.408Z,0
2017-07-06T00:23:19.651Z,0
2017-07-06T00:23:39.921Z,0
2017-07-06T00:24:00.238Z,0
2017-07-06T00:24:20.618Z,0
2017-07-06T00:24:40.896Z,0
2017-07-06T00:25:01.170Z,0
2017-07-06T00:25:21.468Z,0
2017-07-06T00:25:41.865Z,0
2017-07-06T00:26:01.874Z,0
2017-07-06T00:26:22.227Z,0
2017-07-06T00:26:43.442Z,0
2017-07-06T00:27:04.444Z,0
2017-07-06T00:27:25.540Z,0
2017-07-06T00:27:45.849Z,0
2017-07-06T00:28:06.112Z,0
2017-07-06T00:28:26.368Z,0
2017-07-06T00:28:46.671Z,0
2017-07-06T00:29:07.548Z,0
2017-07-06T00:29:27.808Z,0
2017-07-06T00:29:48.113Z,0
2017-07-06T00:30:08.429Z,0
2017-07-06T00:30:28.688Z,0
2017-07-06T00:30:48.990Z,0
2017-07-06T00:31:09.355Z,0
2017-07-06T00:31:29.618Z,0
2017-07-06T00:31:50.572Z,0
2017-07-06T00:32:11.533Z,0
2017-07-06T00:32:31.789Z,0
2017-07-06T00:32:52.076Z,0
2017-07-06T00:33:12.342Z,0
2017-07-06T00:33:32.594Z,0
2017-07-06T00:33:52.867Z,0
2017-07-06T00:34:13.138Z,0
2017-07-06T00:34:33.394Z,0
2017-07-06T00:34:53.650Z,0
2017-07-06T00:35:13.967Z,0
2017-07-06T00:35:34.241Z,0
2017-07-06T00:35:54.589Z,0
2017-07-06T00:36:14.858Z,0
2017-07-06T00:36:35.128Z,0
2017-07-06T00:36:55.435Z,0
2017-07-06T00:37:15.702Z,0
2017-07-06T00:37:35.970Z,0
2017-07-06T00:37:56.225Z,0
2017-07-06T00:38:16.533Z,0
2017-07-06T00:38:36.844Z,0
2017-07-06T00:38:57.147Z,0
2017-07-06T00:39:17.421Z,0
2017-07-06T00:39:37.697Z,0
2017-07-06T00:39:57.969Z,0
2017-07-06T00:40:18.277Z,0
2017-07-06T00:40:38.526Z,0
2017-07-06T00:40:59.580Z,0
2017-07-06T00:41:19.844Z,0
2017-07-06T00:41:41.075Z,0
2017-07-06T00:42:01.382Z,0
2017-07-06T00:42:22.477Z,0
2017-07-06T00:42:42.780Z,0
2017-07-06T00:43:03.100Z,0
2017-07-06T00:43:23.435Z,0
2017-07-06T00:43:43.503Z,0
2017-07-06T00:44:03.814Z,0
2017-07-06T00:44:24.067Z,0
2017-07-06T00:44:44.348Z,0
2017-07-06T00:45:04.682Z,0
2017-07-06T00:45:24.956Z,0
2017-07-06T00:45:46.044Z,0
2017-07-06T00:46:07.081Z,0
2017-07-06T00:46:27.338Z,0
2017-07-06T00:46:47.612Z,0
2017-07-06T00:47:07.924Z,0
2017-07-06T00:47:28.196Z,0
2017-07-06T00:47:48.458Z,0
2017-07-06T00:48:08.763Z,0
2017-07-06T00:48:29.165Z,0
2017-07-06T00:48:49.441Z,0
2017-07-06T00:49:09.766Z,0
2017-07-06T00:49:30.037Z,0
2017-07-06T00:49:50.331Z,0
2017-07-06T00:50:11.558Z,0
2017-07-06T00:50:32.433Z,0
2017-07-06T00:50:52.546Z,0
2017-07-06T00:51:12.808Z,0
2017-07-06T00:51:33.159Z,0
2017-07-06T00:51:53.438Z,0
2017-07-06T00:52:13.702Z,0
2017-07-06T00:52:33.977Z,0
2017-07-06T00:52:54.300Z,0
2017-07-06T00:53:15.574Z,0
2017-07-06T00:53:35.845Z,0
2017-07-06T00:53:56.099Z,0
2017-07-06T00:54:16.404Z,0
2017-07-06T00:54:36.698Z,0
2017-07-06T00:54:56.959Z,0
2017-07-06T00:55:17.260Z,0
2017-07-06T00:55:37.523Z,0
2017-07-06T00:55:57.538Z,0
2017-07-06T00:56:17.896Z,0
2017-07-06T00:56:39.078Z,0
2017-07-06T00:56:59.339Z,0
2017-07-06T00:57:19.636Z,0
2017-07-06T00:57:40.469Z,0
2017-07-06T00:58:00.788Z,0
2017-07-06T00:58:21.050Z,0
2017-07-06T00:58:41.945Z,0
2017-07-06T00:59:02.220Z,0
2017-07-06T00:59:22.553Z,0
2017-07-06T00:59:42.824Z,0
2017-07-06T01:00:03.120Z,0
2017-07-06T01:00:23.388Z,0
2017-07-06T01:00:43.703Z,0
2017-07-06T01:01:04.003Z,0
2017-07-06T01:01:25.075Z,0
2017-07-06T01:01:45.379Z,0
2017-07-06T01:02:05.656Z,0
2017-07-06T01:02:25.924Z,0
2017-07-06T01:02:46.194Z,0
2017-07-06T01:03:06.472Z,0
2017-07-06T01:03:26.798Z,0
2017-07-06T01:03:47.062Z,0
2017-07-06T01:04:07.419Z,0
2017-07-06T01:04:27.716Z,0
2017-07-06T01:04:47.977Z,0
2017-07-06T01:05:08.230Z,0
2017-07-06T01:05:28.506Z,0
2017-07-06T01:05:48.783Z,0
2017-07-06T01:06:09.054Z,0
2017-07-06T01:06:29.329Z,0
2017-07-06T01:06:49.633Z,0
2017-07-06T01:07:09.984Z,0
2017-07-06T01:07:30.254Z,0
2017-07-06T01:07:50.523Z,0
2017-07-06T01:08:10.801Z,0
2017-07-06T01:08:31.059Z,0
2017-07-06T01:08:51.355Z,0
2017-07-06T01:09:11.632Z,0
2017-07-06T01:09:31.932Z,0
2017-07-06T01:09:52.190Z,0
2017-07-06T01:10:12.516Z,0
2017-07-06T01:10:32.773Z,0
2017-07-06T01:10:53.120Z,0
2017-07-06T01:11:13.426Z,0
2017-07-06T01:11:33.708Z,0
2017-07-06T01:11:53.979Z,0
2017-07-06T01:12:14.992Z,0
2017-07-06T01:12:35.299Z,0
2017-07-06T01:12:55.558Z,0
2017-07-06T01:13:15.836Z,0
2017-07-06T01:13:36.991Z,0
2017-07-06T01:13:57.251Z,0
2017-07-06T01:14:18.095Z,0
2017-07-06T01:14:38.366Z,0
2017-07-06T01:14:58.678Z,0
2017-07-06T01:15:19.056Z,0
2017-07-06T01:15:39.308Z,0
2017-07-06T01:16:00.453Z,0
2017-07-06T01:16:20.758Z,0
2017-07-06T01:16:41.066Z,0
2017-07-06T01:17:01.349Z,0
2017-07-06T01:17:21.658Z,0
2017-07-06T01:17:41.918Z,0
2017-07-06T01:18:02.185Z,0
2017-07-06T01:18:22.489Z,0
2017-07-06T01:18:42.771Z,0
2017-07-06T01:19:03.038Z,0
2017-07-06T01:19:23.402Z,0
2017-07-06T01:19:43.672Z,0
2017-07-06T01:20:03.932Z,0
2017-07-06T01:20:24.204Z,0
2017-07-06T01:20:44.463Z,0
2017-07-06T01:21:04.774Z,0
2017-07-06T01:21:25.030Z,0
2017-07-06T01:21:46.078Z,0
2017-07-06T01:22:06.342Z,0
2017-07-06T01:22:26.641Z,0
2017-07-06T01:22:46.984Z,0
2017-07-06T01:23:07.240Z,0
2017-07-06T01:23:27.503Z,0
2017-07-06T01:23:47.779Z,0
2017-07-06T01:24:08.113Z,0
2017-07-06T01:24:28.388Z,0
2017-07-06T01:24:48.638Z,0
2017-07-06T01:25:08.908Z,0
2017-07-06T01:25:30.098Z,0
2017-07-06T01:25:51.113Z,0
2017-07-06T01:26:11.425Z,0
2017-07-06T01:26:31.697Z,0
2017-07-06T01:26:52.005Z,0
2017-07-06T01:27:12.316Z,0
2017-07-06T01:27:32.629Z,0
2017-07-06T01:27:52.889Z,0
2017-07-06T01:28:14.078Z,0
2017-07-06T01:28:35.080Z,0
2017-07-06T01:28:55.357Z,0
2017-07-06T01:29:15.651Z,0
2017-07-06T01:29:35.958Z,0
2017-07-06T01:29:56.244Z,0
2017-07-06T01:30:16.490Z,0
2017-07-06T01:30:36.766Z,0
2017-07-06T01:30:59.578Z,0
2017-07-06T01:31:19.923Z,0
2017-07-06T01:31:40.237Z,0
2017-07-06T01:32:00.495Z,0
2017-07-06T01:32:20.797Z,0
2017-07-06T01:32:41.106Z,0
2017-07-06T01:33:01.407Z,0
2017-07-06T01:33:21.673Z,0
2017-07-06T01:33:41.983Z,0
2017-07-06T01:34:02.260Z,0
2017-07-06T01:34:22.252Z,0
2017-07-06T01:34:42.621Z,0
2017-07-06T01:35:02.978Z,0
2017-07-06T01:35:24.117Z,0
2017-07-06T01:35:44.357Z,0
2017-07-06T01:36:04.626Z,0
2017-07-06T01:36:25.005Z,0
2017-07-06T01:36:45.266Z,0
2017-07-06T01:37:05.570Z,0
2017-07-06T01:37:25.954Z,0
2017-07-06T01:37:47.198Z,0
2017-07-06T01:38:07.484Z,0
2017-07-06T01:38:28.654Z,0
2017-07-06T01:38:48.932Z,0
2017-07-06T01:39:10.054Z,0
2017-07-06T01:39:30.311Z,0
2017-07-06T01:39:50.574Z,0
2017-07-06T01:40:10.889Z,0
2017-07-06T01:40:31.161Z,0
2017-07-06T01:40:51.527Z,0
2017-07-06T01:41:11.896Z,0
2017-07-06T01:41:32.162Z,0
2017-07-06T01:41:52.460Z,0
2017-07-06T01:42:12.734Z,0
2017-07-06T01:42:32.991Z,0
2017-07-06T01:42:53.268Z,0
2017-07-06T01:43:13.575Z,0
2017-07-06T01:43:33.970Z,0
2017-07-06T01:43:54.248Z,0
2017-07-06T01:44:14.509Z,0
2017-07-06T01:44:34.819Z,0
2017-07-06T01:44:55.118Z,0
2017-07-06T01:45:17.089Z,0
2017-07-06T01:45:37.343Z,0
2017-07-06T01:45:57.697Z,0
2017-07-06T01:46:17.985Z,0
2017-07-06T01:46:38.239Z,0
2017-07-06T01:46:58.522Z,0
2017-07-06T01:47:18.824Z,0
2017-07-06T01:47:39.114Z,0
2017-07-06T01:47:59.385Z,0
2017-07-06T01:48:20.590Z,0
2017-07-06T01:48:40.855Z,0
2017-07-06T01:49:01.135Z,0
2017-07-06T01:49:21.399Z,0
2017-07-06T01:49:41.671Z,0
2017-07-06T01:50:02.706Z,0
2017-07-06T01:50:22.978Z,0
2017-07-06T01:50:43.237Z,0
2017-07-06T01:51:03.510Z,0
2017-07-06T01:51:23.781Z,0
2017-07-06T01:51:44.628Z,0
2017-07-06T01:52:04.880Z,0
2017-07-06T01:52:25.187Z,0
2017-07-06T01:52:45.491Z,0
2017-07-06T01:53:05.459Z,0
2017-07-06T01:53:26.605Z,0
2017-07-06T01:53:46.914Z,0
2017-07-06T01:54:07.181Z,0
2017-07-06T01:54:28.107Z,0
2017-07-06T01:54:48.418Z,0
2017-07-06T01:55:08.678Z,0
2017-07-06T01:55:28.941Z,0
2017-07-06T01:55:49.199Z,0
2017-07-06T01:56:09.541Z,0
2017-07-06T01:56:29.840Z,0
2017-07-06T01:56:50.098Z,0
2017-07-06T01:57:10.405Z,0
2017-07-06T01:57:30.677Z,0
2017-07-06T01:57:50.948Z,0
2017-07-06T01:58:11.214Z,0
2017-07-06T01:58:32.579Z,0
2017-07-06T01:58:52.923Z,0
2017-07-06T01:59:13.239Z,0
2017-07-06T01:59:33.571Z,0
2017-07-06T01:59:53.877Z,0
2017-07-06T02:00:14.179Z,0
2017-07-06T02:00:34.521Z,0
2017-07-06T02:00:54.822Z,0
2017-07-06T02:01:15.081Z,0
2017-07-06T02:01:35.400Z,0
2017-07-06T02:01:55.678Z,0
2017-07-06T02:02:15.986Z,0
2017-07-06T02:02:37.101Z,0
2017-07-06T02:02:57.415Z,0
2017-07-06T02:03:17.727Z,0
2017-07-06T02:03:37.991Z,0
2017-07-06T02:03:58.248Z,0
2017-07-06T02:04:19.460Z,0
2017-07-06T02:04:40.542Z,0
2017-07-06T02:05:00.862Z,0
2017-07-06T02:05:21.101Z,0
2017-07-06T02:05:41.366Z,0
2017-07-06T02:06:01.674Z,0
2017-07-06T02:06:23.135Z,0
2017-07-06T02:06:43.438Z,0
2017-07-06T02:07:03.720Z,0
2017-07-06T02:07:24.073Z,0
2017-07-06T02:07:44.382Z,0
2017-07-06T02:08:04.659Z,0
2017-07-06T02:08:24.991Z,0
2017-07-06T02:08:45.272Z,0
2017-07-06T02:09:05.581Z,0
2017-07-06T02:09:25.862Z,0
2017-07-06T02:09:46.138Z,0
2017-07-06T02:10:06.440Z,0
2017-07-06T02:10:26.748Z,0
2017-07-06T02:10:47.001Z,0
2017-07-06T02:11:07.283Z,0
2017-07-06T02:11:28.505Z,0
2017-07-06T02:11:48.781Z,0
2017-07-06T02:12:09.028Z,0
2017-07-06T02:12:29.298Z,0
2017-07-06T02:12:49.596Z,0
2017-07-06T02:13:09.896Z,0
2017-07-06T02:13:31.644Z,0
2017-07-06T02:13:51.949Z,0
2017-07-06T02:14:13.118Z,0
2017-07-06T02:14:33.428Z,0
2017-07-06T02:14:53.688Z,0
2017-07-06T02:15:13.749Z,0
2017-07-06T02:15:34.016Z,0
2017-07-06T02:15:54.268Z,0
2017-07-06T02:16:14.567Z,0
2017-07-06T02:16:34.936Z,4
2017-07-06T02:16:55.203Z,4
2017-07-06T02:17:15.459Z,4
2017-07-06T02:17:36.641Z,4
2017-07-06T02:17:56.956Z,4
2017-07-06T02:18:17.221Z,4
2017-07-06T02:18:37.487Z,4
2017-07-06T02:18:58.618Z,4
2017-07-06T02:19:18.876Z,0
2017-07-06T02:19:39.171Z,0
2017-07-06T02:20:00.115Z,0
2017-07-06T02:20:21.156Z,0
2017-07-06T02:20:41.442Z,0
2017-07-06T02:21:01.730Z,4
2017-07-06T02:21:22.026Z,4
2017-07-06T02:21:42.305Z,4
2017-07-06T02:22:02.609Z,4
2017-07-06T02:22:22.919Z,4
2017-07-06T02:22:43.359Z,4
2017-07-06T02:23:03.687Z,4
2017-07-06T02:23:23.998Z,0
2017-07-06T02:23:44.303Z,4
2017-07-06T02:24:04.505Z,4
2017-07-06T02:24:24.763Z,4
2017-07-06T02:24:45.117Z,4
2017-07-06T02:25:05.428Z,4
2017-07-06T02:25:26.647Z,4
2017-07-06T02:25:47.646Z,4
2017-07-06T02:26:07.937Z,4
2017-07-06T02:26:28.201Z,4
2017-07-06T02:26:49.147Z,4
2017-07-06T02:27:09.462Z,4
2017-07-06T02:27:29.732Z,4
2017-07-06T02:27:50.997Z,4
2017-07-06T02:28:11.250Z,8
2017-07-06T02:28:31.531Z,8
2017-07-06T02:28:51.847Z,4
2017-07-06T02:29:12.162Z,4
2017-07-06T02:29:32.479Z,4
2017-07-06T02:29:52.735Z,8
2017-07-06T02:30:13.086Z,8
2017-07-06T02:30:33.359Z,8
2017-07-06T02:30:53.755Z,4
2017-07-06T02:31:14.052Z,4
2017-07-06T02:31:35.054Z,8
2017-07-06T02:31:55.322Z,8
2017-07-06T02:32:15.625Z,8
2017-07-06T02:32:35.964Z,8
2017-07-06T02:32:56.218Z,8
2017-07-06T02:33:16.495Z,12
2017-07-06T02:33:36.760Z,8
2017-07-06T02:33:57.079Z,8
2017-07-06T02:34:17.388Z,12
2017-07-06T02:34:37.696Z,8
2017-07-06T02:34:58.005Z,12
2017-07-06T02:35:18.273Z,8
2017-07-06T02:35:38.600Z,12
2017-07-06T02:35:58.854Z,12
2017-07-06T02:36:19.113Z,12
2017-07-06T02:36:39.413Z,16
2017-07-06T02:36:59.735Z,12
2017-07-06T02:37:19.996Z,16
2017-07-06T02:37:40.365Z,16
2017-07-06T02:38:00.669Z,16
2017-07-06T02:38:20.991Z,16
2017-07-06T02:38:41.263Z,20
2017-07-06T02:39:01.576Z,16
2017-07-06T02:39:21.827Z,20
2017-07-06T02:39:42.105Z,20
2017-07-06T02:40:02.375Z,20
2017-07-06T02:40:22.375Z,24
2017-07-06T02:40:42.676Z,20
2017-07-06T02:41:02.938Z,24
2017-07-06T02:41:23.259Z,24
2017-07-06T02:41:44.572Z,24
2017-07-06T02:42:04.883Z,28
2017-07-06T02:42:25.247Z,28
2017-07-06T02:42:45.500Z,28
2017-07-06T02:43:05.468Z,28
2017-07-06T02:43:25.776Z,28
2017-07-06T02:43:46.060Z,32
2017-07-06T02:44:06.347Z,32
2017-07-06T02:44:26.613Z,36
2017-07-06T02:44:46.930Z,32
2017-07-06T02:45:07.207Z,32
2017-07-06T02:45:27.463Z,36
2017-07-06T02:45:47.774Z,36
2017-07-06T02:46:08.099Z,36
2017-07-06T02:46:28.392Z,40
2017-07-06T02:46:48.670Z,40
2017-07-06T02:47:09.022Z,44
2017-07-06T02:47:29.298Z,44
2017-07-06T02:47:49.562Z,48
2017-07-06T02:48:09.810Z,48
2017-07-06T02:48:30.117Z,48
2017-07-06T02:48:50.382Z,52
2017-07-06T02:49:11.648Z,52
2017-07-06T02:49:31.958Z,52
2017-07-06T02:49:52.232Z,56
2017-07-06T02:50:12.500Z,56
2017-07-06T02:50:32.764Z,60
2017-07-06T02:50:53.019Z,56
2017-07-06T02:51:13.342Z,60
2017-07-06T02:51:33.614Z,60
2017-07-06T02:51:54.002Z,64
2017-07-06T02:52:14.312Z,64
2017-07-06T02:52:34.627Z,68
2017-07-06T02:52:54.957Z,72
2017-07-06T02:53:15.310Z,72
2017-07-06T02:53:35.592Z,76
2017-07-06T02:53:55.847Z,76
2017-07-06T02:54:16.125Z,80
2017-07-06T02:54:36.471Z,84
2017-07-06T02:54:56.736Z,88
2017-07-06T02:55:16.994Z,88
2017-07-06T02:55:37.299Z,92
2017-07-06T02:55:58.153Z,96
2017-07-06T02:56:18.449Z,100
2017-07-06T02:56:38.724Z,104
2017-07-06T02:56:59.115Z,104
2017-07-06T02:57:19.310Z,108
2017-07-06T02:57:39.631Z,116
2017-07-06T02:57:59.900Z,116
2017-07-06T02:58:20.223Z,120
2017-07-06T02:58:40.537Z,124
2017-07-06T02:59:00.818Z,132
2017-07-06T02:59:21.115Z,136
2017-07-06T02:59:41.378Z,140
2017-07-06T03:00:01.687Z,148
2017-07-06T03:00:21.966Z,152
2017-07-06T03:00:42.231Z,156
2017-07-06T03:01:02.534Z,164
2017-07-06T03:01:22.787Z,168
2017-07-06T03:01:43.100Z,176
2017-07-06T03:02:04.046Z,184
2017-07-06T03:02:24.367Z,188
2017-07-06T03:02:44.670Z,196
2017-07-06T03:03:05.720Z,204
2017-07-06T03:03:26.029Z,208
2017-07-06T03:03:47.153Z,212
2017-07-06T03:04:07.427Z,220
2017-07-06T03:04:27.748Z,228
2017-07-06T03:04:48.052Z,232
2017-07-06T03:05:08.397Z,240
2017-07-06T03:05:28.705Z,244
2017-07-06T03:05:48.999Z,252
2017-07-06T03:06:10.154Z,256
2017-07-06T03:06:30.426Z,260
2017-07-06T03:06:50.691Z,268
2017-07-06T03:07:11.049Z,276
2017-07-06T03:07:31.345Z,280
2017-07-06T03:07:51.598Z,288
2017-07-06T03:08:11.877Z,292
2017-07-06T03:08:32.182Z,304
2017-07-06T03:08:52.507Z,308
2017-07-06T03:09:12.892Z,312
2017-07-06T03:09:33.161Z,320
2017-07-06T03:09:53.494Z,324
2017-07-06T03:10:14.626Z,332
2017-07-06T03:10:34.891Z,336
2017-07-06T03:10:55.155Z,344
2017-07-06T03:11:15.434Z,348
2017-07-06T03:11:35.709Z,352
2017-07-06T03:11:56.031Z,360
2017-07-06T03:12:17.181Z,368
2017-07-06T03:12:37.575Z,372
2017-07-06T03:12:57.900Z,380
2017-07-06T03:13:18.212Z,388
2017-07-06T03:13:38.500Z,400
2017-07-06T03:13:58.823Z,408
2017-07-06T03:14:19.187Z,416
2017-07-06T03:14:39.505Z,428
2017-07-06T03:14:59.765Z,436
2017-07-06T03:15:20.066Z,444
2017-07-06T03:15:40.337Z,452
2017-07-06T03:16:00.601Z,460
2017-07-06T03:16:20.878Z,468
2017-07-06T03:16:41.147Z,472
2017-07-06T03:17:01.504Z,484
2017-07-06T03:17:22.656Z,492
2017-07-06T03:17:43.203Z,496
2017-07-06T03:18:03.941Z,508
2017-07-06T03:18:24.240Z,516
2017-07-06T03:18:44.503Z,520
2017-07-06T03:19:04.902Z,528
2017-07-06T03:19:25.214Z,536
2017-07-06T03:19:45.470Z,544
2017-07-06T03:20:05.828Z,552
2017-07-06T03:20:26.141Z,556
2017-07-06T03:20:46.414Z,564
2017-07-06T03:21:06.751Z,568
2017-07-06T03:21:27.082Z,580
2017-07-06T03:21:47.433Z,584
2017-07-06T03:22:07.808Z,596
2017-07-06T03:22:28.148Z,604
2017-07-06T03:22:48.459Z,612
2017-07-06T03:23:08.756Z,620
2017-07-06T03:23:29.079Z,624
2017-07-06T03:23:49.372Z,632
2017-07-06T03:24:09.649Z,640
2017-07-06T03:24:29.965Z,644
2017-07-06T03:24:50.249Z,648
2017-07-06T03:25:10.502Z,652
2017-07-06T03:25:30.759Z,656
2017-07-06T03:25:51.023Z,660
2017-07-06T03:26:11.388Z,664
2017-07-06T03:26:31.664Z,664
2017-07-06T03:26:51.967Z,672
2017-07-06T03:27:12.268Z,676
2017-07-06T03:27:32.538Z,680
2017-07-06T03:27:52.809Z,688
2017-07-06T03:28:13.126Z,692
2017-07-06T03:28:33.400Z,700
2017-07-06T03:28:54.622Z,712
2017-07-06T03:29:14.892Z,720
2017-07-06T03:29:35.203Z,728
2017-07-06T03:29:56.198Z,732
2017-07-06T03:30:16.516Z,740
2017-07-06T03:30:36.786Z,748
2017-07-06T03:30:57.055Z,756
2017-07-06T03:31:17.357Z,764
2017-07-06T03:31:37.706Z,768
2017-07-06T03:31:58.056Z,776
2017-07-06T03:32:18.345Z,784
2017-07-06T03:32:38.604Z,796
2017-07-06T03:32:58.919Z,808
2017-07-06T03:33:18.972Z,816
2017-07-06T03:33:39.247Z,828
2017-07-06T03:33:59.564Z,836
2017-07-06T03:34:19.851Z,848
2017-07-06T03:34:40.261Z,860
2017-07-06T03:35:00.522Z,880
2017-07-06T03:35:20.853Z,892
2017-07-06T03:35:41.125Z,908
2017-07-06T03:36:01.447Z,928
2017-07-06T03:36:22.691Z,952
2017-07-06T03:36:42.977Z,972
2017-07-06T03:37:03.252Z,992
2017-07-06T03:37:23.759Z,1004
2017-07-06T03:37:44.074Z,1024
2017-07-06T03:38:05.164Z,1036
2017-07-06T03:38:26.110Z,1056
2017-07-06T03:38:46.384Z,1072
2017-07-06T03:39:06.706Z,1084
2017-07-06T03:39:26.981Z,1104
2017-07-06T03:39:47.269Z,1120
2017-07-06T03:40:07.557Z,1136
2017-07-06T03:40:27.867Z,1152
2017-07-06T03:40:48.696Z,1168
2017-07-06T03:41:09.011Z,1184
2017-07-06T03:41:29.267Z,1204
2017-07-06T03:41:49.255Z,1220
2017-07-06T03:42:09.612Z,1232
2017-07-06T03:42:29.880Z,1252
2017-07-06T03:42:50.158Z,1272
2017-07-06T03:43:10.459Z,1288
2017-07-06T03:43:30.776Z,1308
2017-07-06T03:43:51.093Z,1324
2017-07-06T03:44:11.415Z,1344
2017-07-06T03:44:31.782Z,1360
2017-07-06T03:44:52.106Z,1380
2017-07-06T03:45:13.285Z,1392
2017-07-06T03:45:33.544Z,1408
2017-07-06T03:45:53.795Z,1424
2017-07-06T03:46:14.110Z,1436
2017-07-06T03:46:34.367Z,1456
2017-07-06T03:46:54.676Z,1468
2017-07-06T03:47:14.992Z,1484
2017-07-06T03:47:35.298Z,1496
2017-07-06T03:47:55.295Z,1508
2017-07-06T03:48:15.571Z,1520
2017-07-06T03:48:35.828Z,1532
2017-07-06T03:48:56.101Z,1552
2017-07-06T03:49:16.362Z,1568
2017-07-06T03:49:36.629Z,1584
2017-07-06T03:49:56.950Z,1608
2017-07-06T03:50:17.256Z,1620
2017-07-06T03:50:37.606Z,1644
2017-07-06T03:50:57.923Z,1656
2017-07-06T03:51:19.216Z,1676
2017-07-06T03:51:39.486Z,1692
2017-07-06T03:51:59.807Z,1708
2017-07-06T03:52:20.077Z,1724
2017-07-06T03:52:40.347Z,1736
2017-07-06T03:53:00.647Z,1744
2017-07-06T03:53:20.947Z,1760
2017-07-06T03:53:41.208Z,1768
2017-07-06T03:54:01.510Z,1780
2017-07-06T03:54:21.821Z,1788
2017-07-06T03:54:42.084Z,1800
2017-07-06T03:55:02.472Z,1812
2017-07-06T03:55:22.753Z,1824
2017-07-06T03:55:43.068Z,1832
2017-07-06T03:56:03.368Z,1840
2017-07-06T03:56:23.641Z,1852
2017-07-06T03:56:44.718Z,1860
2017-07-06T03:57:05.041Z,1872
2017-07-06T03:57:25.300Z,1880
2017-07-06T03:57:45.575Z,1896
2017-07-06T03:58:05.896Z,1908
2017-07-06T03:58:26.233Z,1924
2017-07-06T03:58:46.535Z,1932
2017-07-06T03:59:07.634Z,1948
2017-07-06T03:59:27.942Z,1960
2017-07-06T03:59:48.260Z,1976
2017-07-06T04:00:08.527Z,1988
2017-07-06T04:00:28.877Z,2004
2017-07-06T04:00:49.157Z,2016
2017-07-06T04:01:09.563Z,2032
2017-07-06T04:01:30.720Z,2052
2017-07-06T04:01:51.054Z,2068
2017-07-06T04:02:12.213Z,2084
2017-07-06T04:02:32.514Z,2104
2017-07-06T04:02:52.869Z,2120
2017-07-06T04:03:13.196Z,2132
2017-07-06T04:03:33.511Z,2148
2017-07-06T04:03:53.793Z,2164
2017-07-06T04:04:14.086Z,2180
2017-07-06T04:04:34.412Z,2192
2017-07-06T04:04:54.717Z,2212
2017-07-06T04:05:14.991Z,2224
2017-07-06T04:05:36.215Z,2240
2017-07-06T04:05:56.520Z,2260
2017-07-06T04:06:16.786Z,2280
2017-07-06T04:06:37.110Z,2296
2017-07-06T04:06:57.431Z,2320
2017-07-06T04:07:17.784Z,2340
2017-07-06T04:07:38.092Z,2360
2017-07-06T04:07:59.235Z,2380
2017-07-06T04:08:19.581Z,2396
2017-07-06T04:08:39.836Z,2412
2017-07-06T04:09:00.144Z,2424
2017-07-06T04:09:20.458Z,2440
2017-07-06T04:09:40.783Z,2452
2017-07-06T04:10:01.062Z,2468
2017-07-06T04:10:21.330Z,2484
2017-07-06T04:10:41.598Z,2500
2017-07-06T04:11:01.910Z,2512
2017-07-06T04:11:23.187Z,2528
2017-07-06T04:11:43.451Z,2548
2017-07-06T04:12:03.759Z,2564
2017-07-06T04:12:24.041Z,2580
2017-07-06T04:12:44.323Z,2600
2017-07-06T04:13:04.347Z,2616
2017-07-06T04:13:24.645Z,2636
2017-07-06T04:13:44.951Z,2652
2017-07-06T04:14:05.212Z,2672
2017-07-06T04:14:25.509Z,2688
2017-07-06T04:14:45.772Z,2700
2017-07-06T04:15:06.054Z,2716
2017-07-06T04:15:26.395Z,2728
2017-07-06T04:15:46.657Z,2744
2017-07-06T04:16:07.682Z,2752
2017-07-06T04:16:27.958Z,2764
2017-07-06T04:16:48.331Z,2772
2017-07-06T04:17:08.588Z,2788
2017-07-06T04:17:28.897Z,2796
2017-07-06T04:17:49.165Z,2804
2017-07-06T04:18:09.431Z,2816
2017-07-06T04:18:29.700Z,2828
2017-07-06T04:18:49.965Z,2840
2017-07-06T04:19:10.249Z,2852
2017-07-06T04:19:30.616Z,2868
2017-07-06T04:19:50.875Z,2880
2017-07-06T04:20:11.144Z,2892
2017-07-06T04:20:31.466Z,2900
2017-07-06T04:20:51.815Z,2912
2017-07-06T04:21:12.129Z,2920
2017-07-06T04:21:33.228Z,2932
2017-07-06T04:21:53.588Z,2944
2017-07-06T04:22:13.843Z,2952
2017-07-06T04:22:34.246Z,2964
2017-07-06T04:22:54.536Z,2980
2017-07-06T04:23:14.849Z,2992
2017-07-06T04:23:35.158Z,3008
2017-07-06T04:23:56.192Z,3024
2017-07-06T04:24:16.471Z,3044
2017-07-06T04:24:36.759Z,3060
2017-07-06T04:24:57.090Z,3080
2017-07-06T04:25:17.360Z,3092
2017-07-06T04:25:37.674Z,3116
2017-07-06T04:25:57.939Z,3132
2017-07-06T04:26:18.251Z,3148
2017-07-06T04:26:38.565Z,3164
2017-07-06T04:26:58.921Z,3176
2017-07-06T04:27:19.281Z,3188
2017-07-06T04:27:39.604Z,3200
2017-07-06T04:27:59.900Z,3216
2017-07-06T04:28:20.151Z,3224
2017-07-06T04:28:40.411Z,3232
2017-07-06T04:29:00.814Z,3240
2017-07-06T04:29:21.093Z,3248
2017-07-06T04:29:41.366Z,3256
2017-07-06T04:30:01.408Z,3264
2017-07-06T04:30:21.711Z,3272
2017-07-06T04:30:41.980Z,3288
2017-07-06T04:31:02.245Z,3292
2017-07-06T04:31:22.613Z,3308
2017-07-06T04:31:42.886Z,3316
2017-07-06T04:32:03.155Z,3328
2017-07-06T04:32:23.443Z,3340
2017-07-06T04:32:43.718Z,3352
2017-07-06T04:33:04.015Z,3364
2017-07-06T04:33:24.284Z,3376
2017-07-06T04:33:44.595Z,3392
2017-07-06T04:34:04.977Z,3400
2017-07-06T04:34:25.229Z,3412
2017-07-06T04:34:45.500Z,3424
2017-07-06T04:35:05.823Z,3436
2017-07-06T04:35:26.180Z,3452
2017-07-06T04:35:46.527Z,3468
2017-07-06T04:36:06.857Z,3488
2017-07-06T04:36:27.123Z,3504
2017-07-06T04:36:48.208Z,3524
2017-07-06T04:37:08.465Z,3540
2017-07-06T04:37:28.741Z,3560
2017-07-06T04:37:49.055Z,3568
2017-07-06T04:38:10.154Z,3584
2017-07-06T04:38:30.418Z,3600
2017-07-06T04:38:50.738Z,3612
2017-07-06T04:39:11.091Z,3624
2017-07-06T04:39:31.363Z,3636
2017-07-06T04:39:51.655Z,3644
2017-07-06T04:40:11.944Z,3656
2017-07-06T04:40:32.268Z,3664
2017-07-06T04:40:52.571Z,3672
2017-07-06T04:41:13.723Z,3680
2017-07-06T04:41:33.998Z,3688
2017-07-06T04:41:54.277Z,3696
2017-07-06T04:42:14.559Z,3704
2017-07-06T04:42:35.778Z,3720
2017-07-06T04:42:56.084Z,3724
2017-07-06T04:43:16.363Z,3728
2017-07-06T04:43:36.655Z,3732
2017-07-06T04:43:56.917Z,3744
2017-07-06T04:44:17.176Z,3748
2017-07-06T04:44:37.532Z,3760
2017-07-06T04:44:57.794Z,3768
2017-07-06T04:45:18.145Z,3776
2017-07-06T04:45:38.413Z,3788
2017-07-06T04:45:58.680Z,3800
2017-07-06T04:46:18.932Z,3816
2017-07-06T04:46:39.240Z,3828
2017-07-06T04:46:59.647Z,3836
2017-07-06T04:47:19.901Z,3848
2017-07-06T04:47:40.184Z,3856
2017-07-06T04:48:00.448Z,3868
2017-07-06T04:48:21.722Z,3872
2017-07-06T04:48:42.007Z,3880
2017-07-06T04:49:02.291Z,3888
2017-07-06T04:49:22.615Z,3892
2017-07-06T04:49:43.617Z,3900